Time;durP1;ratioP1;P1;durP2;ratioP2;P2;SDS_P1;SDS_P2;PMS_P1;PMS_P2;Temp;Humidity;BMP_temperature;BMP_pressure;BME280_temperature;BME280_humidity;BME280_pressure;Samples;Min_cycle;Max_cycle;Signal;HPM_P1;HPM_P2
2021/03/14 00:01:43;;;;;;;8.37;7.87;;;4.80;99.90;;;;;;5032450;28;20264;-77
2021/03/14 00:04:09;;;;;;;8.73;8.23;;;4.80;99.90;;;;;;5028189;28;20450;-77
2021/03/14 00:06:36;;;;;;;8.43;7.93;;;4.80;99.90;;;;;;5032215;28;20450;-77
2021/03/14 00:09:03;;;;;;;8.50;8.00;;;4.70;99.90;;;;;;5032819;28;20491;-78
2021/03/14 00:11:29;;;;;;;8.17;7.73;;;4.70;99.90;;;;;;5032891;28;20470;-77
2021/03/14 00:13:55;;;;;;;8.10;7.70;;;4.80;99.90;;;;;;5014958;28;20541;-77
2021/03/14 00:16:22;;;;;;;8.30;7.80;;;4.80;99.90;;;;;;5014446;28;20454;-76
2021/03/14 00:18:49;;;;;;;8.40;7.90;;;4.80;99.90;;;;;;5014364;28;20277;-78
2021/03/14 00:21:18;;;;;;;8.47;7.87;;;4.80;99.90;;;;;;5032092;28;20465;-77
2021/03/14 00:23:44;;;;;;;8.47;7.90;;;4.80;99.90;;;;;;5032373;28;20196;-78
2021/03/14 00:26:10;;;;;;;8.17;7.67;;;4.70;99.90;;;;;;5031958;28;20430;-77
2021/03/14 00:28:37;;;;;;;8.90;8.30;;;4.70;99.90;;;;;;5014824;28;20192;-77
2021/03/14 00:31:03;;;;;;;8.50;8.00;;;4.70;99.90;;;;;;5015489;28;20556;-77
2021/03/14 00:33:30;;;;;;;8.30;7.80;;;4.70;99.90;;;;;;5014320;28;20830;-77
2021/03/14 00:35:57;;;;;;;8.40;7.80;;;4.80;99.90;;;;;;5016538;28;20947;-78
2021/03/14 00:38:23;;;;;;;8.37;7.83;;;4.70;99.90;;;;;;5017549;28;20485;-77
2021/03/14 00:40:49;;;;;;;8.27;7.77;;;4.70;99.90;;;;;;5035008;28;20219;-78
2021/03/14 00:43:16;;;;;;;8.33;7.70;;;4.70;99.90;;;;;;5035335;28;20439;-77
2021/03/14 00:45:42;;;;;;;8.10;7.40;;;4.80;99.90;;;;;;5017550;28;20442;-78
2021/03/14 00:48:09;;;;;;;8.37;7.87;;;4.70;99.90;;;;;;5034683;28;20214;-77
2021/03/14 00:50:40;;;;;;;8.10;7.60;;;4.70;99.90;;;;;;5016855;28;20483;-78
2021/03/14 00:53:09;;;;;;;8.17;7.67;;;4.70;99.90;;;;;;5016724;28;20447;-76
2021/03/14 00:55:39;;;;;;;8.00;7.50;;;4.70;99.90;;;;;;5017167;28;20195;-78
2021/03/14 00:58:07;;;;;;;7.87;7.30;;;4.70;99.90;;;;;;5016179;28;20489;-77
2021/03/14 01:00:34;;;;;;;8.20;7.50;;;4.70;99.90;;;;;;5008221;28;20462;-78
2021/03/14 01:03:01;;;;;;;8.30;7.80;;;4.70;99.90;;;;;;5033957;28;20439;-78
2021/03/14 01:05:32;;;;;;;8.33;7.83;;;4.70;99.90;;;;;;5016193;28;20442;-78
2021/03/14 01:08:00;;;;;;;8.13;7.63;;;4.70;99.90;;;;;;5015598;28;20454;-77
2021/03/14 01:10:26;;;;;;;8.20;7.70;;;4.70;99.90;;;;;;5033739;28;20459;-78
2021/03/14 01:12:53;;;;;;;8.20;7.70;;;4.60;99.90;;;;;;5020523;28;20450;-77
2021/03/14 01:15:24;;;;;;;8.30;7.80;;;4.60;99.90;;;;;;5017757;28;20443;-78
2021/03/14 01:17:54;;;;;;;8.73;8.07;;;4.50;99.90;;;;;;5015702;28;20474;-78
2021/03/14 01:20:22;;;;;;;7.90;7.50;;;4.40;99.90;;;;;;5015517;28;20513;-77
2021/03/14 01:22:49;;;;;;;8.33;7.87;;;4.30;99.90;;;;;;5035638;28;20481;-77
2021/03/14 01:25:17;;;;;;;7.90;7.50;;;4.30;99.90;;;;;;5037962;28;20210;-78
2021/03/14 01:27:45;;;;;;;8.50;7.87;;;4.20;99.90;;;;;;5037871;28;20446;-78
2021/03/14 01:30:14;;;;;;;8.10;7.70;;;4.20;99.90;;;;;;5037841;28;20496;-78
2021/03/14 01:32:40;;;;;;;8.10;7.70;;;4.10;99.90;;;;;;5021514;28;20530;-77
2021/03/14 01:35:07;;;;;;;8.03;7.63;;;4.10;99.90;;;;;;5041176;28;20492;-77
2021/03/14 01:37:34;;;;;;;8.37;7.87;;;4.00;99.90;;;;;;5019629;28;20469;-78
2021/03/14 01:40:00;;;;;;;8.50;8.00;;;4.00;99.90;;;;;;5019401;28;20467;-77
2021/03/14 01:42:29;;;;;;;8.13;7.70;;;4.00;99.90;;;;;;5037494;28;20439;-78
2021/03/14 01:44:56;;;;;;;8.13;7.73;;;4.00;99.90;;;;;;5036877;28;20430;-77
2021/03/14 01:47:30;;;;;;;8.03;7.63;;;4.00;99.90;;;;;;5019181;28;20453;-77
2021/03/14 01:49:57;;;;;;;8.00;7.60;;;4.00;99.90;;;;;;5037033;28;20456;-77
2021/03/14 01:52:24;;;;;;;8.10;7.70;;;3.90;99.90;;;;;;5037365;28;20867;-77
2021/03/14 01:54:50;;;;;;;8.03;7.63;;;3.90;99.90;;;;;;5036907;28;20429;-78
2021/03/14 01:57:17;;;;;;;8.13;7.73;;;3.90;99.90;;;;;;5019672;28;20895;-78
2021/03/14 01:59:44;;;;;;;8.13;7.73;;;3.80;99.90;;;;;;5036919;28;20439;-78
2021/03/14 02:02:10;;;;;;;8.07;7.67;;;3.80;99.90;;;;;;5019139;28;20447;-77
2021/03/14 02:04:37;;;;;;;8.10;7.70;;;3.80;99.90;;;;;;5018344;28;20459;-76
2021/03/14 02:07:03;;;;;;;8.00;7.60;;;3.80;99.90;;;;;;5019260;28;20450;-77
2021/03/14 02:09:30;;;;;;;7.90;7.50;;;3.80;99.90;;;;;;5037072;28;20465;-77
2021/03/14 02:12:00;;;;;;;8.00;7.60;;;3.80;99.90;;;;;;5037694;28;20467;-77
2021/03/14 02:14:27;;;;;;;8.30;7.90;;;3.70;99.90;;;;;;5018470;28;20451;-78
2021/03/14 02:16:57;;;;;;;8.30;7.90;;;3.70;99.90;;;;;;5036988;28;20443;-77
2021/03/14 02:19:28;;;;;;;8.10;7.70;;;3.70;99.90;;;;;;5019418;28;20446;-78
2021/03/14 02:21:57;;;;;;;8.10;7.70;;;3.70;99.90;;;;;;5018607;28;20473;-77
2021/03/14 02:24:26;;;;;;;8.13;7.63;;;3.70;99.90;;;;;;5037753;28;20437;-77
2021/03/14 02:26:58;;;;;;;8.40;8.00;;;3.70;99.90;;;;;;5036533;28;20448;-77
2021/03/14 02:29:25;;;;;;;8.20;7.80;;;3.60;99.90;;;;;;5019210;28;20458;-77
2021/03/14 02:31:54;;;;;;;8.23;7.83;;;3.60;99.90;;;;;;5020871;28;20475;-77
2021/03/14 02:34:24;;;;;;;8.10;7.70;;;3.60;99.90;;;;;;5036268;28;20430;-77
2021/03/14 02:36:53;;;;;;;8.20;7.80;;;3.60;99.90;;;;;;5036500;28;20438;-78
2021/03/14 02:39:22;;;;;;;8.30;7.90;;;3.60;99.90;;;;;;5018514;28;20448;-78
2021/03/14 02:41:52;;;;;;;8.23;7.83;;;3.60;99.90;;;;;;5018402;28;20481;-77
2021/03/14 02:44:23;;;;;;;8.50;8.10;;;3.60;99.90;;;;;;5019175;28;20452;-78
2021/03/14 02:46:52;;;;;;;8.30;7.90;;;3.50;99.90;;;;;;5036424;28;20439;-78
2021/03/14 02:49:20;;;;;;;8.30;7.90;;;3.60;99.90;;;;;;5047633;28;20924;-78
2021/03/14 02:51:47;;;;;;;8.50;8.00;;;3.60;99.90;;;;;;5043151;28;20451;-78
2021/03/14 02:54:14;;;;;;;8.43;8.00;;;3.60;99.90;;;;;;5037433;28;20936;-78
2021/03/14 02:56:43;;;;;;;8.40;8.00;;;3.60;99.90;;;;;;5032302;28;20453;-78
2021/03/14 02:59:10;;;;;;;8.40;8.00;;;3.60;99.90;;;;;;5021584;28;20474;-77
2021/03/14 03:01:37;;;;;;;8.60;8.20;;;3.60;99.90;;;;;;5036370;28;20458;-78
2021/03/14 03:04:05;;;;;;;8.50;8.10;;;3.60;99.90;;;;;;5018828;28;20989;-78
2021/03/14 03:06:31;;;;;;;8.70;8.10;;;3.60;99.90;;;;;;5018529;28;20447;-78
2021/03/14 03:08:58;;;;;;;8.47;8.07;;;3.50;99.90;;;;;;5018461;28;20469;-78
2021/03/14 03:11:25;;;;;;;8.60;8.20;;;3.50;99.90;;;;;;5017912;28;20488;-78
2021/03/14 03:13:52;;;;;;;8.90;8.40;;;3.40;99.90;;;;;;5036524;28;20438;-76
2021/03/14 03:16:21;;;;;;;8.67;8.23;;;3.40;99.90;;;;;;5017920;28;20991;-77
2021/03/14 03:18:48;;;;;;;8.53;8.13;;;3.40;99.90;;;;;;5035886;28;20473;-77
2021/03/14 03:21:15;;;;;;;8.53;8.13;;;3.40;99.90;;;;;;5018485;28;20466;-76
2021/03/14 03:23:43;;;;;;;8.70;8.30;;;3.40;99.90;;;;;;5011510;28;20454;-77
2021/03/14 03:26:09;;;;;;;8.73;8.33;;;3.40;99.90;;;;;;5031191;28;20793;-77
2021/03/14 03:28:36;;;;;;;8.80;8.30;;;3.40;99.90;;;;;;5018702;28;20890;-78
2021/03/14 03:31:03;;;;;;;8.73;8.23;;;3.40;99.90;;;;;;5018730;28;20471;-77
2021/03/14 03:33:29;;;;;;;8.60;8.20;;;3.40;99.90;;;;;;5019740;28;20454;-78
2021/03/14 03:35:57;;;;;;;8.87;8.40;;;3.50;99.90;;;;;;5036358;28;20536;-77
2021/03/14 03:38:23;;;;;;;8.50;8.10;;;3.40;99.90;;;;;;5035216;28;20841;-77
2021/03/14 03:40:50;;;;;;;8.70;8.20;;;3.40;99.90;;;;;;5018071;28;20591;-78
2021/03/14 03:43:21;;;;;;;9.00;8.50;;;3.40;99.90;;;;;;5017656;28;20454;-78
2021/03/14 03:45:50;;;;;;;8.73;8.33;;;3.40;99.90;;;;;;5033095;28;20438;-76
2021/03/14 03:48:21;;;;;;;9.00;8.60;;;3.40;99.90;;;;;;5015703;28;20482;-77
2021/03/14 03:50:50;;;;;;;8.90;8.50;;;3.40;99.90;;;;;;5017514;28;20818;-76
2021/03/14 03:53:18;;;;;;;9.17;8.67;;;3.40;99.90;;;;;;5034068;28;20446;-78
2021/03/14 03:55:46;;;;;;;8.90;8.40;;;3.40;99.90;;;;;;5013689;28;20470;-77
2021/03/14 03:58:13;;;;;;;9.20;8.70;;;3.40;99.90;;;;;;5007694;28;20478;-78
2021/03/14 04:00:40;;;;;;;9.70;9.20;;;3.40;99.90;;;;;;5017412;28;20485;-78
2021/03/14 04:03:07;;;;;;;9.10;8.60;;;3.50;99.90;;;;;;5035888;28;20453;-78
2021/03/14 04:05:34;;;;;;;8.93;8.43;;;3.40;99.90;;;;;;5008930;28;20466;-80
2021/03/14 04:08:01;;;;;;;8.70;8.30;;;3.40;99.90;;;;;;5017574;28;20456;-78
2021/03/14 04:10:30;;;;;;;8.73;8.30;;;3.40;99.90;;;;;;5020225;28;20493;-78
2021/03/14 04:12:59;;;;;;;8.83;8.33;;;3.40;99.90;;;;;;5027590;28;20517;-78
2021/03/14 04:15:33;;;;;;;9.50;8.90;;;3.40;99.90;;;;;;5021183;28;20451;-78
2021/03/14 04:18:00;;;;;;;9.10;8.60;;;3.40;99.90;;;;;;5034526;28;20488;-79
2021/03/14 04:20:29;;;;;;;9.07;8.47;;;3.40;99.90;;;;;;5026840;28;20466;-78
2021/03/14 04:23:00;;;;;;;8.70;8.30;;;3.40;99.90;;;;;;5025322;28;20441;-78
2021/03/14 04:25:29;;;;;;;8.87;8.37;;;3.40;99.90;;;;;;5037588;28;20470;-78
2021/03/14 04:27:57;;;;;;;9.00;8.50;;;3.50;99.90;;;;;;5041249;28;20421;-77
2021/03/14 04:30:26;;;;;;;9.40;8.90;;;3.50;99.90;;;;;;5023567;28;20481;-78
2021/03/14 04:32:55;;;;;;;8.37;7.97;;;3.40;99.90;;;;;;5019170;28;20597;-77
2021/03/14 04:35:22;;;;;;;8.73;8.23;;;3.40;99.90;;;;;;5020227;28;20999;-75
2021/03/14 04:37:49;;;;;;;8.67;8.20;;;3.40;99.90;;;;;;5031166;28;20999;-75
2021/03/14 04:40:17;;;;;;;8.80;8.30;;;3.50;99.90;;;;;;5031313;28;20549;-75
2021/03/14 04:42:47;;;;;;;8.60;8.20;;;3.50;99.90;;;;;;5014444;28;20457;-75
2021/03/14 04:45:14;;;;;;;9.17;8.67;;;3.50;99.90;;;;;;5026119;28;20435;-75
2021/03/14 04:47:42;;;;;;;8.80;8.30;;;3.50;99.90;;;;;;5020350;28;20468;-76
2021/03/14 04:50:09;;;;;;;8.90;8.40;;;3.50;99.90;;;;;;5022098;28;20457;-76
2021/03/14 04:52:38;;;;;;;8.77;8.37;;;3.50;99.90;;;;;;5017011;28;21207;-75
2021/03/14 04:55:06;;;;;;;8.80;8.30;;;3.50;99.90;;;;;;5021261;28;20489;-76
2021/03/14 04:57:35;;;;;;;8.97;8.47;;;3.50;99.90;;;;;;5017201;28;20511;-75
2021/03/14 05:00:06;;;;;;;8.80;8.30;;;3.40;99.90;;;;;;5008170;28;20479;-76
2021/03/14 05:02:34;;;;;;;9.00;8.50;;;3.40;99.90;;;;;;5026919;28;20780;-76
2021/03/14 05:05:03;;;;;;;9.10;8.50;;;3.40;99.90;;;;;;5018201;28;20894;-75
2021/03/14 05:07:30;;;;;;;9.20;8.70;;;3.40;99.90;;;;;;5024676;28;20504;-75
2021/03/14 05:09:57;;;;;;;9.50;8.77;;;3.40;99.90;;;;;;5007110;28;20523;-75
2021/03/14 05:12:24;;;;;;;8.93;8.43;;;3.40;99.90;;;;;;5004719;28;20549;-75
2021/03/14 05:14:50;;;;;;;9.10;8.60;;;3.40;99.90;;;;;;5023137;28;20435;-75
2021/03/14 05:17:18;;;;;;;9.23;8.73;;;3.40;99.90;;;;;;5021753;28;20445;-75
2021/03/14 05:19:45;;;;;;;8.90;8.40;;;3.40;99.90;;;;;;5010959;28;20454;-75
2021/03/14 05:22:12;;;;;;;9.10;8.60;;;3.40;99.90;;;;;;4993460;28;20448;-76
2021/03/14 05:24:40;;;;;;;9.10;8.60;;;3.40;99.90;;;;;;5009437;28;20454;-76
2021/03/14 05:27:09;;;;;;;9.10;8.60;;;3.40;99.90;;;;;;5007910;28;20452;-76
2021/03/14 05:29:36;;;;;;;9.40;8.90;;;3.40;99.90;;;;;;5005989;28;20447;-78
2021/03/14 05:32:03;;;;;;;9.30;8.73;;;3.40;99.90;;;;;;4997594;28;20871;-78
2021/03/14 05:34:30;;;;;;;9.77;9.27;;;3.40;99.90;;;;;;4996774;28;20887;-79
2021/03/14 05:36:56;;;;;;;9.50;9.00;;;3.40;99.90;;;;;;5015709;28;20500;-77
2021/03/14 05:39:22;;;;;;;8.67;8.27;;;3.40;99.90;;;;;;5011932;28;20992;-77
2021/03/14 05:41:49;;;;;;;8.80;8.40;;;3.40;99.90;;;;;;5011622;28;20459;-76
2021/03/14 05:44:16;;;;;;;9.60;9.10;;;3.30;99.90;;;;;;5010873;28;20956;-76
2021/03/14 05:46:42;;;;;;;9.17;8.67;;;3.30;99.90;;;;;;5011034;28;20444;-75
2021/03/14 05:49:09;;;;;;;9.20;8.70;;;3.30;99.90;;;;;;5011202;28;20443;-75
2021/03/14 05:51:41;;;;;;;9.30;8.80;;;3.30;99.90;;;;;;4993555;28;20473;-76
2021/03/14 05:54:11;;;;;;;9.30;8.80;;;3.30;99.90;;;;;;5014357;28;20444;-77
2021/03/14 05:56:41;;;;;;;9.30;8.70;;;3.30;99.90;;;;;;5010971;28;20486;-75
2021/03/14 05:59:09;;;;;;;9.30;8.80;;;3.40;99.90;;;;;;5011212;28;20503;-76
2021/03/14 06:01:37;;;;;;;9.30;8.80;;;3.40;99.90;;;;;;4999269;28;20475;-77
2021/03/14 06:04:07;;;;;;;9.30;8.80;;;3.40;99.90;;;;;;4989810;28;20470;-77
2021/03/14 06:06:33;;;;;;;9.50;9.00;;;3.30;99.90;;;;;;5003308;28;20463;-76
2021/03/14 06:09:00;;;;;;;9.90;9.20;;;3.30;99.90;;;;;;5011614;28;20450;-76
2021/03/14 06:11:27;;;;;;;9.30;8.80;;;3.30;99.90;;;;;;5020166;28;21133;-76
2021/03/14 06:13:53;;;;;;;9.70;9.10;;;3.30;99.90;;;;;;5015895;28;20441;-76
2021/03/14 06:16:19;;;;;;;9.63;9.10;;;3.30;99.90;;;;;;5014494;28;20497;-76
2021/03/14 06:18:50;;;;;;;9.60;8.97;;;3.30;99.90;;;;;;4996734;28;20478;-76
2021/03/14 06:21:21;;;;;;;9.80;9.13;;;3.40;99.90;;;;;;5014490;28;20523;-75
2021/03/14 06:24:04;;;;;;;9.80;9.20;;;3.40;99.90;;;;;;5014119;28;20457;-76
2021/03/14 06:26:37;;;;;;;9.20;8.70;;;3.30;99.90;;;;;;4994580;28;20452;-78
2021/03/14 06:29:23;;;;;;;9.50;8.90;;;3.30;99.90;;;;;;5011378;28;20454;-76
2021/03/14 06:31:52;;;;;;;9.20;8.70;;;3.30;99.90;;;;;;5011133;28;20465;-76
2021/03/14 06:34:27;;;;;;;9.87;9.00;;;3.30;99.90;;;;;;5013626;28;20983;-76
2021/03/14 06:36:53;;;;;;;9.73;8.97;;;3.30;99.90;;;;;;5013731;28;20583;-75
2021/03/14 06:39:25;;;;;;;9.13;8.63;;;3.30;99.90;;;;;;5012270;28;20487;-75
2021/03/14 06:41:52;;;;;;;9.43;8.80;;;3.30;99.90;;;;;;5013949;28;20984;-76
2021/03/14 06:44:26;;;;;;;9.87;9.23;;;3.30;99.90;;;;;;5013747;28;20442;-76
2021/03/14 06:46:52;;;;;;;9.50;8.90;;;3.40;99.90;;;;;;5008344;28;20803;-76
2021/03/14 06:49:22;;;;;;;9.60;9.00;;;3.40;99.90;;;;;;5012626;28;20558;-76
2021/03/14 06:51:49;;;;;;;9.43;8.83;;;3.50;99.90;;;;;;5013746;28;20459;-76
2021/03/14 06:54:28;;;;;;;9.40;8.80;;;3.60;99.90;;;;;;5013892;28;20443;-76
2021/03/14 06:56:59;;;;;;;9.50;8.90;;;3.70;99.90;;;;;;4996412;28;20512;-76
2021/03/14 06:59:26;;;;;;;9.43;8.73;;;3.70;99.90;;;;;;5013886;28;20482;-75
2021/03/14 07:02:05;;;;;;;9.67;8.80;;;3.70;99.90;;;;;;5014784;28;20459;-76
2021/03/14 07:04:37;;;;;;;9.27;8.63;;;3.70;99.90;;;;;;5015223;28;20435;-75
2021/03/14 07:07:04;;;;;;;9.30;8.50;;;3.70;99.90;;;;;;4997048;28;21081;-77
2021/03/14 07:09:32;;;;;;;9.60;8.73;;;3.80;99.90;;;;;;5012841;28;20439;-77
2021/03/14 07:11:59;;;;;;;9.80;8.80;;;3.80;99.90;;;;;;4995814;28;20483;-76
2021/03/14 07:14:26;;;;;;;9.80;9.10;;;4.00;99.90;;;;;;4995928;28;20456;-76
2021/03/14 07:16:55;;;;;;;10.87;8.60;;;4.20;99.90;;;;;;4997060;28;20973;-77
2021/03/14 07:19:23;;;;;;;8.90;8.30;;;4.40;99.90;;;;;;5000677;28;20482;-77
2021/03/14 07:22:01;;;;;;;8.93;8.30;;;4.50;99.90;;;;;;5023172;28;21041;-77
2021/03/14 07:24:36;;;;;;;8.93;8.30;;;4.50;99.90;;;;;;5022788;28;20489;-77
2021/03/14 07:27:04;;;;;;;9.67;9.00;;;4.50;99.90;;;;;;5013043;28;20435;-78
2021/03/14 07:29:31;;;;;;;9.77;8.97;;;4.60;99.90;;;;;;5007530;28;20577;-77
2021/03/14 07:31:58;;;;;;;9.93;9.30;;;4.70;99.90;;;;;;5015584;28;20588;-80
2021/03/14 07:34:26;;;;;;;10.40;9.73;;;4.90;99.90;;;;;;5002188;28;20436;-77
2021/03/14 07:36:53;;;;;;;10.87;10.07;;;5.30;99.90;;;;;;5017572;28;20271;-78
2021/03/14 07:39:19;;;;;;;10.30;9.60;;;5.50;99.90;;;;;;5001957;28;20553;-78
2021/03/14 07:41:47;;;;;;;9.07;8.57;;;5.70;99.90;;;;;;5016940;28;20216;-77
2021/03/14 07:44:23;;;;;;;9.60;9.00;;;5.80;99.90;;;;;;5021304;28;20204;-78
2021/03/14 07:46:51;;;;;;;9.60;8.97;;;5.90;99.90;;;;;;5012742;28;20576;-77
2021/03/14 07:49:23;;;;;;;9.10;8.50;;;6.00;99.90;;;;;;5012847;28;20224;-78
2021/03/14 07:51:52;;;;;;;8.80;8.20;;;6.10;99.90;;;;;;4994898;28;20221;-77
2021/03/14 07:54:23;;;;;;;8.83;8.03;;;6.40;99.90;;;;;;4994953;28;20205;-76
2021/03/14 07:56:53;;;;;;;8.93;8.03;;;6.60;99.90;;;;;;4994777;28;20203;-78
2021/03/14 07:59:28;;;;;;;8.10;7.60;;;6.80;99.90;;;;;;5012273;28;20271;-78
2021/03/14 08:02:24;;;;;;;8.50;7.80;;;7.10;99.90;;;;;;5012474;28;20227;-77
2021/03/14 08:04:52;;;;;;;8.90;8.10;;;7.10;99.90;;;;;;4992530;28;20209;-77
2021/03/14 08:07:41;;;;;;;8.47;7.93;;;7.00;99.90;;;;;;5012239;28;20201;-78
2021/03/14 08:10:09;;;;;;;8.90;8.20;;;6.90;99.90;;;;;;5011957;28;20307;-78
2021/03/14 08:12:37;;;;;;;8.83;8.23;;;6.70;99.90;;;;;;5009948;28;20698;-78
2021/03/14 08:15:21;;;;;;;8.17;7.67;;;6.70;99.90;;;;;;5009670;28;20209;-76
2021/03/14 08:17:48;;;;;;;8.30;7.50;;;6.70;99.90;;;;;;4997612;28;20271;-77
2021/03/14 08:20:15;;;;;;;8.43;7.93;;;6.70;99.90;;;;;;5012348;28;20232;-77
2021/03/14 08:22:51;;;;;;;8.10;7.60;;;6.90;99.90;;;;;;4998772;28;20214;-77
2021/03/14 08:25:28;;;;;;;7.13;6.73;;;7.00;99.90;;;;;;4994919;28;20667;-77
2021/03/14 08:27:59;;;;;;;7.40;6.90;;;7.30;99.90;;;;;;5011639;28;20201;-78
2021/03/14 08:30:48;;;;;;;7.80;7.40;;;7.50;99.90;;;;;;4997716;28;20221;-78
2021/03/14 08:33:29;;;;;;;7.00;6.60;;;7.40;99.90;;;;;;4993947;28;20210;-79
2021/03/14 08:36:04;;;;;;;8.10;7.67;;;7.70;99.90;;;;;;4993802;28;20208;-78
2021/03/14 08:38:34;;;;;;;7.90;7.40;;;8.10;99.90;;;;;;4994366;28;20235;-78
2021/03/14 08:41:24;;;;;;;8.63;8.03;;;8.20;99.90;;;;;;4995410;28;20366;-79
2021/03/14 08:44:01;;;;;;;8.37;7.77;;;8.20;99.90;;;;;;5001229;28;20207;-79
2021/03/14 08:47:07;;;;;;;6.80;6.33;;;8.10;99.90;;;;;;4999932;28;20226;-78
2021/03/14 08:49:47;;;;;;;8.23;7.63;;;8.00;99.90;;;;;;4997829;28;20491;-78
2021/03/14 08:52:16;;;;;;;8.37;7.83;;;7.90;99.90;;;;;;5000051;28;20203;-79
2021/03/14 08:54:54;;;;;;;7.40;6.90;;;7.80;99.90;;;;;;4998306;28;20749;-80
2021/03/14 08:57:23;;;;;;;7.67;7.07;;;7.60;99.90;;;;;;5001847;28;20238;-79
2021/03/14 08:59:54;;;;;;;7.00;6.60;;;7.60;99.90;;;;;;4999491;28;20235;-78
2021/03/14 09:02:22;;;;;;;7.30;6.80;;;7.60;99.90;;;;;;5004153;28;20201;-77
2021/03/14 09:04:49;;;;;;;7.60;7.00;;;7.50;99.90;;;;;;5009581;28;20290;-75
2021/03/14 09:07:41;;;;;;;7.10;6.70;;;7.60;99.90;;;;;;5004439;28;20573;-76
2021/03/14 09:10:13;;;;;;;8.20;7.70;;;7.90;99.90;;;;;;5008179;28;20248;-76
2021/03/14 09:12:59;;;;;;;7.63;7.17;;;8.00;99.90;;;;;;4994071;28;20239;-76
2021/03/14 09:15:46;;;;;;;7.93;7.50;;;8.20;99.90;;;;;;4993663;28;20215;-76
2021/03/14 09:18:23;;;;;;;6.37;5.87;;;8.10;99.90;;;;;;4993801;28;20797;-76
2021/03/14 09:20:57;;;;;;;7.40;6.90;;;7.90;99.90;;;;;;5001984;28;20651;-76
2021/03/14 09:23:23;;;;;;;6.83;6.20;;;7.80;99.90;;;;;;5000389;28;20207;-76
2021/03/14 09:25:53;;;;;;;6.70;6.17;;;7.60;99.90;;;;;;4992370;28;20196;-77
2021/03/14 09:28:22;;;;;;;7.30;6.77;;;7.60;99.90;;;;;;4993599;28;20203;-76
2021/03/14 09:30:53;;;;;;;7.37;6.97;;;7.60;99.90;;;;;;4993473;28;20226;-76
2021/03/14 09:33:19;;;;;;;8.30;7.80;;;7.70;99.90;;;;;;4993790;28;20211;-75
2021/03/14 09:36:07;;;;;;;8.20;7.50;;;7.70;99.90;;;;;;5009792;28;20211;-79
2021/03/14 09:38:57;;;;;;;7.63;7.17;;;7.50;99.90;;;;;;5007967;28;20289;-75
2021/03/14 09:41:42;;;;;;;7.13;6.70;;;7.40;99.90;;;;;;4993260;28;20238;-76
2021/03/14 09:44:15;;;;;;;7.43;6.93;;;7.20;99.90;;;;;;4996449;28;20226;-76
2021/03/14 09:46:57;;;;;;;7.20;6.80;;;7.10;99.90;;;;;;4997197;28;20203;-75
2021/03/14 09:49:41;;;;;;;7.60;7.10;;;7.10;99.90;;;;;;5017394;28;20202;-76
2021/03/14 09:52:11;;;;;;;8.27;7.70;;;7.00;99.90;;;;;;5006378;28;20195;-76
2021/03/14 09:54:38;;;;;;;7.57;7.03;;;7.10;99.90;;;;;;5017544;28;20288;-76
2021/03/14 09:57:05;;;;;;;8.00;7.30;;;7.00;99.90;;;;;;4997103;28;20217;-76
2021/03/14 09:59:51;;;;;;;6.97;6.57;;;7.00;99.90;;;;;;5013217;28;20226;-77
2021/03/14 10:02:26;;;;;;;6.60;6.13;;;7.10;99.90;;;;;;4996966;28;20221;-77
2021/03/14 10:05:18;;;;;;;7.17;6.67;;;7.10;99.90;;;;;;4994796;28;20203;-76
2021/03/14 10:07:51;;;;;;;6.63;6.23;;;7.10;99.90;;;;;;4997402;28;20207;-76
2021/03/14 10:10:18;;;;;;;6.90;6.30;;;7.10;99.90;;;;;;5013104;28;20535;-76
2021/03/14 10:12:52;;;;;;;7.10;6.60;;;7.20;99.90;;;;;;4996338;28;20196;-76
2021/03/14 10:15:19;;;;;;;7.10;6.60;;;7.30;99.90;;;;;;4996635;28;20293;-76
2021/03/14 10:17:53;;;;;;;6.83;6.30;;;7.30;99.90;;;;;;5008046;28;20306;-77
2021/03/14 10:20:21;;;;;;;6.90;6.40;;;7.40;99.90;;;;;;5023047;28;20226;-76
2021/03/14 10:22:58;;;;;;;6.73;6.33;;;7.50;99.90;;;;;;5002555;28;20203;-77
2021/03/14 10:25:32;;;;;;;7.80;7.20;;;7.60;99.90;;;;;;5012741;28;20203;-76
2021/03/14 10:28:07;;;;;;;7.73;7.10;;;7.40;99.90;;;;;;4996787;28;20287;-76
2021/03/14 10:30:44;;;;;;;7.00;6.60;;;7.50;99.90;;;;;;4992344;28;20219;-76
2021/03/14 10:33:29;;;;;;;7.60;7.07;;;7.70;99.90;;;;;;4996859;28;20270;-76
2021/03/14 10:36:01;;;;;;;7.27;6.70;;;7.80;99.90;;;;;;4996037;28;20705;-77
2021/03/14 10:38:38;;;;;;;7.40;6.90;;;7.80;99.90;;;;;;4996496;28;20221;-76
2021/03/14 10:41:09;;;;;;;7.80;7.00;;;8.20;99.90;;;;;;4996516;28;21025;-77
2021/03/14 10:43:45;;;;;;;7.53;7.03;;;8.60;99.90;;;;;;5005020;28;20685;-76
2021/03/14 10:46:12;;;;;;;7.50;6.90;;;9.00;99.90;;;;;;5012641;28;20251;-76
2021/03/14 10:48:39;;;;;;;7.23;6.80;;;9.00;99.90;;;;;;4996548;28;20196;-77
2021/03/14 10:51:09;;;;;;;7.43;6.90;;;8.90;99.90;;;;;;5000722;28;20809;-76
2021/03/14 10:54:02;;;;;;;7.87;7.27;;;8.60;99.90;;;;;;4993464;28;20583;-77
2021/03/14 10:56:33;;;;;;;7.27;6.77;;;8.30;99.90;;;;;;4994420;28;20207;-77
2021/03/14 10:59:00;;;;;;;7.27;6.77;;;8.10;99.90;;;;;;4995591;28;20235;-77
2021/03/14 11:01:53;;;;;;;6.80;6.20;;;8.20;99.90;;;;;;5009630;28;20258;-77
2021/03/14 11:04:27;;;;;;;7.07;6.47;;;8.30;99.90;;;;;;4995248;28;20200;-77
2021/03/14 11:07:01;;;;;;;7.50;6.80;;;8.10;99.90;;;;;;4995563;28;20207;-77
2021/03/14 11:09:29;;;;;;;6.70;6.30;;;8.10;99.90;;;;;;4995587;28;20247;-76
2021/03/14 11:11:57;;;;;;;6.70;6.30;;;8.20;99.90;;;;;;5006539;28;20703;-76
2021/03/14 11:14:35;;;;;;;7.00;6.10;;;8.10;99.90;;;;;;4995202;28;20212;-76
2021/03/14 11:17:29;;;;;;;6.50;6.10;;;8.20;99.90;;;;;;5003094;28;20275;-77
2021/03/14 11:20:08;;;;;;;6.80;6.30;;;8.40;99.90;;;;;;4995294;28;20278;-77
2021/03/14 11:22:43;;;;;;;6.50;6.10;;;8.60;99.90;;;;;;4995081;28;20200;-77
2021/03/14 11:25:12;;;;;;;6.60;6.20;;;8.70;99.90;;;;;;4994791;28;20591;-76
2021/03/14 11:27:40;;;;;;;6.70;6.20;;;8.70;99.90;;;;;;4995142;28;20193;-77
2021/03/14 11:30:08;;;;;;;6.10;5.70;;;9.00;99.90;;;;;;5012145;28;20295;-77
2021/03/14 11:32:38;;;;;;;6.20;5.80;;;9.40;99.90;;;;;;4984518;28;20251;-77
2021/03/14 11:35:17;;;;;;;5.80;5.40;;;9.70;99.90;;;;;;5006107;28;20582;-77
2021/03/14 11:37:56;;;;;;;6.50;5.90;;;10.10;99.90;;;;;;5008745;28;20224;-77
2021/03/14 11:40:53;;;;;;;6.27;5.80;;;10.30;99.90;;;;;;5001571;28;20287;-77
2021/03/14 11:43:32;;;;;;;6.10;5.70;;;10.50;99.90;;;;;;4996328;28;20196;-77
2021/03/14 11:46:17;;;;;;;6.23;5.67;;;10.50;99.90;;;;;;4993244;28;20595;-76
2021/03/14 11:48:48;;;;;;;6.17;5.80;;;10.40;99.90;;;;;;4992103;28;20274;-76
2021/03/14 11:51:18;;;;;;;6.50;6.10;;;10.30;99.90;;;;;;4994939;28;20220;-77
2021/03/14 11:53:45;;;;;;;6.50;6.00;;;10.30;99.90;;;;;;4995484;28;20225;-78
2021/03/14 11:56:12;;;;;;;5.53;5.13;;;10.40;99.90;;;;;;5010938;28;20201;-78
2021/03/14 11:58:49;;;;;;;5.43;5.03;;;10.30;99.90;;;;;;4998646;28;20224;-78
2021/03/14 12:01:19;;;;;;;5.50;5.00;;;10.10;99.90;;;;;;4996857;28;20219;-77
2021/03/14 12:03:48;;;;;;;6.37;5.77;;;9.90;99.90;;;;;;4995033;28;20225;-78
2021/03/14 12:06:19;;;;;;;6.10;5.60;;;9.90;99.90;;;;;;4994422;28;20609;-78
2021/03/14 12:08:56;;;;;;;5.83;5.53;;;9.90;99.90;;;;;;5001336;28;20216;-81
2021/03/14 12:11:22;;;;;;;6.50;5.80;;;9.80;99.90;;;;;;4998847;28;20232;-78
2021/03/14 12:13:52;;;;;;;6.23;5.80;;;9.70;99.90;;;;;;4995944;28;20279;-77
2021/03/14 12:16:41;;;;;;;6.00;5.57;;;9.70;99.90;;;;;;4977598;28;20765;-77
2021/03/14 12:19:09;;;;;;;5.73;5.23;;;9.60;99.90;;;;;;4993883;28;20258;-77
2021/03/14 12:21:36;;;;;;;7.33;5.80;;;9.50;99.90;;;;;;4995233;28;20216;-77
2021/03/14 12:24:03;;;;;;;5.87;5.53;;;9.40;99.90;;;;;;4995030;28;20211;-77
2021/03/14 12:26:34;;;;;;;6.10;5.60;;;9.20;99.90;;;;;;5005701;28;20184;-77
2021/03/14 12:29:09;;;;;;;7.10;6.50;;;9.30;99.90;;;;;;4992846;28;20205;-77
2021/03/14 12:31:46;;;;;;;6.70;6.10;;;9.30;99.90;;;;;;4995132;28;20212;-78
2021/03/14 12:34:12;;;;;;;6.63;5.40;;;9.10;99.90;;;;;;4994950;28;20219;-77
2021/03/14 12:36:42;;;;;;;5.97;5.40;;;8.90;99.90;;;;;;4995063;28;20208;-79
2021/03/14 12:39:17;;;;;;;7.87;7.17;;;8.50;99.90;;;;;;4994218;28;20220;-77
2021/03/14 12:41:43;;;;;;;7.10;6.60;;;8.20;99.90;;;;;;4995688;28;20317;-77
2021/03/14 12:44:10;;;;;;;7.90;6.57;;;7.80;99.90;;;;;;4992404;28;20201;-76
2021/03/14 12:46:39;;;;;;;7.50;6.90;;;7.50;99.90;;;;;;4994573;28;20219;-76
2021/03/14 12:49:06;;;;;;;7.00;6.60;;;7.40;99.90;;;;;;4994739;28;20228;-76
2021/03/14 12:51:32;;;;;;;6.90;6.33;;;7.20;99.90;;;;;;4994057;28;20223;-76
2021/03/14 12:54:02;;;;;;;7.13;6.67;;;7.30;99.90;;;;;;4998379;28;20214;-77
2021/03/14 12:56:28;;;;;;;7.07;6.47;;;7.20;99.90;;;;;;4994250;28;20212;-77
2021/03/14 12:59:06;;;;;;;7.27;6.67;;;7.10;99.90;;;;;;4994678;28;20268;-77
2021/03/14 13:01:34;;;;;;;5.50;5.10;;;7.20;99.90;;;;;;4992493;28;20307;-77
2021/03/14 13:04:01;;;;;;;5.57;5.17;;;7.10;99.90;;;;;;5012770;28;20700;-77
2021/03/14 13:06:28;;;;;;;6.77;6.27;;;7.00;99.90;;;;;;5011216;28;20210;-77
2021/03/14 13:08:54;;;;;;;7.47;6.93;;;6.90;99.90;;;;;;4995829;28;20867;-77
2021/03/14 13:11:21;;;;;;;7.33;6.83;;;6.70;99.90;;;;;;4994196;28;20238;-77
2021/03/14 13:13:48;;;;;;;6.03;5.63;;;6.80;99.90;;;;;;5005784;28;20199;-77
2021/03/14 13:16:14;;;;;;;6.07;5.67;;;6.90;99.90;;;;;;4993772;28;20211;-79